sensor_id;sensor_type;location;lat;lon;timestamp;P1;durP1;ratioP1;P2;durP2;ratioP2
62994;SDS011;49086;52.300;4.850;2022-09-13T00:00:34;18.80;;;10.60;;
62994;SDS011;49086;52.300;4.850;2022-09-13T00:03:00;16.33;;;11.48;;
62994;SDS011;49086;52.300;4.850;2022-09-13T00:06:12;19.20;;;11.10;;
62994;SDS011;49086;52.300;4.850;2022-09-13T00:08:41;16.92;;;10.77;;
62994;SDS011;49086;52.300;4.850;2022-09-13T00:11:46;16.90;;;10.38;;
62994;SDS011;49086;52.300;4.850;2022-09-13T00:14:14;18.58;;;12.75;;
62994;SDS011;49086;52.300;4.850;2022-09-13T00:17:00;22.52;;;13.88;;
62994;SDS011;49086;52.300;4.850;2022-09-13T00:19:25;17.15;;;12.30;;
62994;SDS011;49086;52.300;4.850;2022-09-13T00:22:06;16.08;;;11.77;;
62994;SDS011;49086;52.300;4.850;2022-09-13T00:24:34;16.27;;;12.18;;
62994;SDS011;49086;52.300;4.850;2022-09-13T00:27:04;18.35;;;11.70;;
62994;SDS011;49086;52.300;4.850;2022-09-13T00:29:29;22.40;;;12.18;;
62994;SDS011;49086;52.300;4.850;2022-09-13T00:31:56;17.35;;;12.10;;
62994;SDS011;49086;52.300;4.850;2022-09-13T00:34:22;15.93;;;11.23;;
62994;SDS011;49086;52.300;4.850;2022-09-13T00:36:47;16.02;;;12.25;;
62994;SDS011;49086;52.300;4.850;2022-09-13T00:39:12;20.38;;;12.13;;
62994;SDS011;49086;52.300;4.850;2022-09-13T00:41:40;16.15;;;10.73;;
62994;SDS011;49086;52.300;4.850;2022-09-13T00:44:43;18.42;;;11.50;;
62994;SDS011;49086;52.300;4.850;2022-09-13T00:47:11;18.67;;;11.98;;
62994;SDS011;49086;52.300;4.850;2022-09-13T00:49:39;24.25;;;11.88;;
62994;SDS011;49086;52.300;4.850;2022-09-13T00:52:10;18.70;;;12.32;;
62994;SDS011;49086;52.300;4.850;2022-09-13T00:54:44;15.85;;;11.15;;
62994;SDS011;49086;52.300;4.850;2022-09-13T00:57:18;17.73;;;10.60;;
62994;SDS011;49086;52.300;4.850;2022-09-13T00:59:55;19.75;;;12.02;;
62994;SDS011;49086;52.300;4.850;2022-09-13T01:03:02;15.47;;;10.70;;
62994;SDS011;49086;52.300;4.850;2022-09-13T01:05:32;19.05;;;11.00;;
62994;SDS011;49086;52.300;4.850;2022-09-13T01:08:04;16.58;;;11.27;;
62994;SDS011;49086;52.300;4.850;2022-09-13T01:10:41;17.95;;;10.98;;
62994;SDS011;49086;52.300;4.850;2022-09-13T01:13:09;17.40;;;10.68;;
62994;SDS011;49086;52.300;4.850;2022-09-13T01:15:39;17.52;;;10.60;;
62994;SDS011;49086;52.300;4.850;2022-09-13T01:18:06;16.30;;;10.82;;
62994;SDS011;49086;52.300;4.850;2022-09-13T01:20:42;17.05;;;10.80;;
62994;SDS011;49086;52.300;4.850;2022-09-13T01:32:34;17.08;;;10.70;;
62994;SDS011;49086;52.300;4.850;2022-09-13T01:35:35;17.83;;;11.40;;
62994;SDS011;49086;52.300;4.850;2022-09-13T01:38:30;12.73;;;10.20;;
62994;SDS011;49086;52.300;4.850;2022-09-13T01:49:56;15.85;;;10.13;;
62994;SDS011;49086;52.300;4.850;2022-09-13T01:52:51;15.77;;;10.63;;
62994;SDS011;49086;52.300;4.850;2022-09-13T02:01:05;15.98;;;10.75;;
62994;SDS011;49086;52.300;4.850;2022-09-13T02:04:03;16.52;;;11.20;;
62994;SDS011;49086;52.300;4.850;2022-09-13T02:06:39;15.98;;;10.27;;
62994;SDS011;49086;52.300;4.850;2022-09-13T02:09:13;16.90;;;11.15;;
62994;SDS011;49086;52.300;4.850;2022-09-13T02:11:45;19.83;;;10.25;;
62994;SDS011;49086;52.300;4.850;2022-09-13T02:14:15;15.07;;;10.73;;
62994;SDS011;49086;52.300;4.850;2022-09-13T02:22:32;13.23;;;9.50;;
62994;SDS011;49086;52.300;4.850;2022-09-13T02:25:06;17.47;;;9.97;;
62994;SDS011;49086;52.300;4.850;2022-09-13T02:27:37;19.77;;;10.23;;
62994;SDS011;49086;52.300;4.850;2022-09-13T02:30:08;17.35;;;10.27;;
62994;SDS011;49086;52.300;4.850;2022-09-13T02:35:13;15.98;;;10.23;;
62994;SDS011;49086;52.300;4.850;2022-09-13T02:37:40;16.08;;;10.25;;
62994;SDS011;49086;52.300;4.850;2022-09-13T02:40:13;17.88;;;10.88;;
62994;SDS011;49086;52.300;4.850;2022-09-13T02:42:58;18.10;;;11.13;;
62994;SDS011;49086;52.300;4.850;2022-09-13T02:45:57;17.67;;;10.60;;
62994;SDS011;49086;52.300;4.850;2022-09-13T02:48:27;15.55;;;10.50;;
62994;SDS011;49086;52.300;4.850;2022-09-13T03:01:56;18.00;;;11.43;;
62994;SDS011;49086;52.300;4.850;2022-09-13T03:05:26;16.52;;;11.27;;
62994;SDS011;49086;52.300;4.850;2022-09-13T03:07:52;19.25;;;11.93;;
62994;SDS011;49086;52.300;4.850;2022-09-13T03:10:19;15.80;;;11.50;;
62994;SDS011;49086;52.300;4.850;2022-09-13T03:13:17;19.60;;;12.40;;
62994;SDS011;49086;52.300;4.850;2022-09-13T03:31:33;18.83;;;12.13;;
62994;SDS011;49086;52.300;4.850;2022-09-13T03:34:07;19.55;;;11.60;;
62994;SDS011;49086;52.300;4.850;2022-09-13T03:37:02;19.42;;;12.52;;
62994;SDS011;49086;52.300;4.850;2022-09-13T03:39:41;17.80;;;12.25;;
62994;SDS011;49086;52.300;4.850;2022-09-13T03:44:40;20.65;;;12.43;;
62994;SDS011;49086;52.300;4.850;2022-09-13T03:47:08;17.67;;;11.32;;
62994;SDS011;49086;52.300;4.850;2022-09-13T03:49:39;20.25;;;10.95;;
62994;SDS011;49086;52.300;4.850;2022-09-13T03:52:05;17.17;;;11.35;;
62994;SDS011;49086;52.300;4.850;2022-09-13T03:54:32;19.75;;;11.57;;
62994;SDS011;49086;52.300;4.850;2022-09-13T03:57:05;19.95;;;12.63;;
62994;SDS011;49086;52.300;4.850;2022-09-13T03:59:33;18.60;;;12.23;;
62994;SDS011;49086;52.300;4.850;2022-09-13T04:02:01;16.60;;;11.48;;
62994;SDS011;49086;52.300;4.850;2022-09-13T04:04:26;18.85;;;12.25;;
62994;SDS011;49086;52.300;4.850;2022-09-13T04:06:52;20.48;;;12.60;;
62994;SDS011;49086;52.300;4.850;2022-09-13T04:09:20;17.80;;;11.50;;
62994;SDS011;49086;52.300;4.850;2022-09-13T04:11:47;21.23;;;13.38;;
62994;SDS011;49086;52.300;4.850;2022-09-13T04:14:13;22.52;;;13.18;;
62994;SDS011;49086;52.300;4.850;2022-09-13T04:16:40;20.02;;;12.23;;
62994;SDS011;49086;52.300;4.850;2022-09-13T04:19:07;18.95;;;12.90;;
62994;SDS011;49086;52.300;4.850;2022-09-13T04:21:33;18.83;;;12.30;;
62994;SDS011;49086;52.300;4.850;2022-09-13T04:23:58;17.63;;;12.13;;
62994;SDS011;49086;52.300;4.850;2022-09-13T04:26:23;16.52;;;11.23;;
62994;SDS011;49086;52.300;4.850;2022-09-13T04:28:51;16.40;;;11.40;;
62994;SDS011;49086;52.300;4.850;2022-09-13T04:31:17;18.30;;;12.02;;
62994;SDS011;49086;52.300;4.850;2022-09-13T04:33:42;19.48;;;11.93;;
62994;SDS011;49086;52.300;4.850;2022-09-13T04:36:09;23.65;;;13.02;;
62994;SDS011;49086;52.300;4.850;2022-09-13T04:38:34;21.40;;;13.00;;
62994;SDS011;49086;52.300;4.850;2022-09-13T04:41:01;22.58;;;12.18;;
62994;SDS011;49086;52.300;4.850;2022-09-13T04:43:27;20.75;;;12.25;;
62994;SDS011;49086;52.300;4.850;2022-09-13T04:45:53;18.92;;;12.70;;
62994;SDS011;49086;52.300;4.850;2022-09-13T04:48:40;19.13;;;12.48;;
62994;SDS011;49086;52.300;4.850;2022-09-13T04:51:06;20.75;;;13.05;;
62994;SDS011;49086;52.300;4.850;2022-09-13T04:53:34;21.75;;;12.77;;
62994;SDS011;49086;52.300;4.850;2022-09-13T04:56:18;16.98;;;12.30;;
62994;SDS011;49086;52.300;4.850;2022-09-13T04:58:47;20.10;;;13.30;;
62994;SDS011;49086;52.300;4.850;2022-09-13T05:01:34;21.63;;;12.30;;
62994;SDS011;49086;52.300;4.850;2022-09-13T05:04:00;19.00;;;12.18;;
62994;SDS011;49086;52.300;4.850;2022-09-13T05:06:29;17.88;;;12.45;;
62994;SDS011;49086;52.300;4.850;2022-09-13T05:08:56;21.73;;;13.40;;
62994;SDS011;49086;52.300;4.850;2022-09-13T05:11:22;21.15;;;13.10;;
62994;SDS011;49086;52.300;4.850;2022-09-13T05:13:49;18.40;;;12.55;;
62994;SDS011;49086;52.300;4.850;2022-09-13T05:16:25;20.00;;;12.65;;
62994;SDS011;49086;52.300;4.850;2022-09-13T05:18:53;18.55;;;12.40;;
62994;SDS011;49086;52.300;4.850;2022-09-13T05:21:19;22.02;;;12.25;;
62994;SDS011;49086;52.300;4.850;2022-09-13T05:23:49;18.80;;;12.05;;
62994;SDS011;49086;52.300;4.850;2022-09-13T05:26:16;15.48;;;11.02;;
62994;SDS011;49086;52.300;4.850;2022-09-13T05:28:42;18.77;;;11.75;;
62994;SDS011;49086;52.300;4.850;2022-09-13T05:31:14;19.98;;;11.88;;
62994;SDS011;49086;52.300;4.850;2022-09-13T05:33:43;15.02;;;10.85;;
62994;SDS011;49086;52.300;4.850;2022-09-13T05:36:10;15.00;;;10.02;;
62994;SDS011;49086;52.300;4.850;2022-09-13T05:38:38;14.50;;;9.32;;
62994;SDS011;49086;52.300;4.850;2022-09-13T05:41:07;15.38;;;8.48;;
62994;SDS011;49086;52.300;4.850;2022-09-13T05:43:33;9.55;;;6.68;;
62994;SDS011;49086;52.300;4.850;2022-09-13T05:46:07;15.60;;;7.00;;
62994;SDS011;49086;52.300;4.850;2022-09-13T05:48:46;12.55;;;6.63;;
62994;SDS011;49086;52.300;4.850;2022-09-13T05:51:20;10.10;;;6.65;;
62994;SDS011;49086;52.300;4.850;2022-09-13T05:53:48;9.88;;;5.63;;
62994;SDS011;49086;52.300;4.850;2022-09-13T05:56:17;9.82;;;5.93;;
62994;SDS011;49086;52.300;4.850;2022-09-13T05:58:47;8.77;;;4.95;;
62994;SDS011;49086;52.300;4.850;2022-09-13T06:01:16;9.52;;;5.60;;
62994;SDS011;49086;52.300;4.850;2022-09-13T06:03:48;9.30;;;5.30;;
62994;SDS011;49086;52.300;4.850;2022-09-13T06:06:16;8.15;;;4.45;;
62994;SDS011;49086;52.300;4.850;2022-09-13T06:08:43;7.47;;;4.05;;
62994;SDS011;49086;52.300;4.850;2022-09-13T06:11:11;8.30;;;3.85;;
62994;SDS011;49086;52.300;4.850;2022-09-13T06:13:38;8.43;;;3.75;;
62994;SDS011;49086;52.300;4.850;2022-09-13T06:16:07;7.50;;;3.28;;
62994;SDS011;49086;52.300;4.850;2022-09-13T06:18:35;7.03;;;3.58;;
62994;SDS011;49086;52.300;4.850;2022-09-13T06:21:25;6.53;;;3.80;;
62994;SDS011;49086;52.300;4.850;2022-09-13T06:23:55;8.48;;;3.65;;
62994;SDS011;49086;52.300;4.850;2022-09-13T06:26:25;6.10;;;3.10;;
62994;SDS011;49086;52.300;4.850;2022-09-13T06:28:55;8.85;;;2.83;;
62994;SDS011;49086;52.300;4.850;2022-09-13T06:31:23;5.45;;;2.85;;
62994;SDS011;49086;52.300;4.850;2022-09-13T06:33:54;4.93;;;2.70;;
62994;SDS011;49086;52.300;4.850;2022-09-13T06:36:21;4.55;;;2.95;;
62994;SDS011;49086;52.300;4.850;2022-09-13T06:38:58;6.15;;;3.00;;
62994;SDS011;49086;52.300;4.850;2022-09-13T06:41:27;4.88;;;2.40;;
62994;SDS011;49086;52.300;4.850;2022-09-13T06:43:56;5.88;;;2.88;;
62994;SDS011;49086;52.300;4.850;2022-09-13T06:46:23;6.93;;;2.78;;
62994;SDS011;49086;52.300;4.850;2022-09-13T06:48:51;4.30;;;2.08;;
62994;SDS011;49086;52.300;4.850;2022-09-13T06:51:21;5.05;;;2.33;;
62994;SDS011;49086;52.300;4.850;2022-09-13T06:53:54;6.40;;;2.20;;
62994;SDS011;49086;52.300;4.850;2022-09-13T06:56:21;5.72;;;2.10;;
62994;SDS011;49086;52.300;4.850;2022-09-13T06:58:59;5.63;;;2.35;;
62994;SDS011;49086;52.300;4.850;2022-09-13T07:01:42;8.95;;;2.25;;
62994;SDS011;49086;52.300;4.850;2022-09-13T07:04:13;7.30;;;2.38;;
62994;SDS011;49086;52.300;4.850;2022-09-13T07:06:44;9.52;;;2.42;;
62994;SDS011;49086;52.300;4.850;2022-09-13T07:09:16;5.15;;;2.35;;
62994;SDS011;49086;52.300;4.850;2022-09-13T07:11:47;5.57;;;2.40;;
62994;SDS011;49086;52.300;4.850;2022-09-13T07:14:21;4.68;;;2.63;;
62994;SDS011;49086;52.300;4.850;2022-09-13T07:16:54;6.57;;;2.92;;
62994;SDS011;49086;52.300;4.850;2022-09-13T07:19:24;7.53;;;2.53;;
62994;SDS011;49086;52.300;4.850;2022-09-13T07:21:51;7.72;;;3.05;;
62994;SDS011;49086;52.300;4.850;2022-09-13T07:24:20;4.97;;;2.58;;
62994;SDS011;49086;52.300;4.850;2022-09-13T07:26:49;8.60;;;2.58;;
62994;SDS011;49086;52.300;4.850;2022-09-13T07:29:18;8.98;;;2.40;;
62994;SDS011;49086;52.300;4.850;2022-09-13T07:31:50;5.57;;;2.08;;
62994;SDS011;49086;52.300;4.850;2022-09-13T07:34:27;7.13;;;2.00;;
62994;SDS011;49086;52.300;4.850;2022-09-13T07:36:53;4.35;;;2.00;;
62994;SDS011;49086;52.300;4.850;2022-09-13T07:39:19;4.03;;;1.75;;
62994;SDS011;49086;52.300;4.850;2022-09-13T07:41:47;8.48;;;2.17;;
62994;SDS011;49086;52.300;4.850;2022-09-13T07:44:16;6.53;;;2.00;;
62994;SDS011;49086;52.300;4.850;2022-09-13T07:46:41;4.90;;;1.90;;
62994;SDS011;49086;52.300;4.850;2022-09-13T07:49:11;5.47;;;2.22;;
62994;SDS011;49086;52.300;4.850;2022-09-13T07:51:39;6.15;;;2.20;;
62994;SDS011;49086;52.300;4.850;2022-09-13T07:54:12;6.55;;;1.92;;
62994;SDS011;49086;52.300;4.850;2022-09-13T07:56:40;5.22;;;1.83;;
62994;SDS011;49086;52.300;4.850;2022-09-13T07:59:11;7.22;;;1.63;;
62994;SDS011;49086;52.300;4.850;2022-09-13T08:01:45;5.28;;;1.65;;
62994;SDS011;49086;52.300;4.850;2022-09-13T08:04:19;4.30;;;1.42;;
62994;SDS011;49086;52.300;4.850;2022-09-13T08:06:53;4.93;;;1.42;;
62994;SDS011;49086;52.300;4.850;2022-09-13T08:09:19;5.18;;;1.63;;
62994;SDS011;49086;52.300;4.850;2022-09-13T08:11:47;4.78;;;1.75;;
62994;SDS011;49086;52.300;4.850;2022-09-13T08:14:16;4.55;;;1.42;;
62994;SDS011;49086;52.300;4.850;2022-09-13T08:16:45;5.68;;;1.65;;
62994;SDS011;49086;52.300;4.850;2022-09-13T08:19:16;2.67;;;1.42;;
62994;SDS011;49086;52.300;4.850;2022-09-13T08:21:42;7.47;;;1.63;;
62994;SDS011;49086;52.300;4.850;2022-09-13T08:24:13;7.72;;;2.10;;
62994;SDS011;49086;52.300;4.850;2022-09-13T08:26:41;4.13;;;1.55;;
62994;SDS011;49086;52.300;4.850;2022-09-13T08:29:06;4.05;;;1.50;;
62994;SDS011;49086;52.300;4.850;2022-09-13T08:31:35;7.68;;;1.58;;
62994;SDS011;49086;52.300;4.850;2022-09-13T08:34:02;5.43;;;1.65;;
62994;SDS011;49086;52.300;4.850;2022-09-13T08:36:28;3.75;;;1.55;;
62994;SDS011;49086;52.300;4.850;2022-09-13T08:38:57;5.72;;;2.35;;
62994;SDS011;49086;52.300;4.850;2022-09-13T08:44:12;7.38;;;2.10;;
62994;SDS011;49086;52.300;4.850;2022-09-13T08:46:55;5.63;;;2.00;;
62994;SDS011;49086;52.300;4.850;2022-09-13T08:49:29;3.88;;;2.10;;
62994;SDS011;49086;52.300;4.850;2022-09-13T08:55:39;6.18;;;2.35;;
62994;SDS011;49086;52.300;4.850;2022-09-13T09:04:29;5.55;;;1.92;;
62994;SDS011;49086;52.300;4.850;2022-09-13T09:07:22;4.32;;;1.65;;
62994;SDS011;49086;52.300;4.850;2022-09-13T09:09:52;5.65;;;1.80;;
62994;SDS011;49086;52.300;4.850;2022-09-13T09:12:28;5.45;;;1.83;;
62994;SDS011;49086;52.300;4.850;2022-09-13T09:15:26;4.93;;;1.60;;
62994;SDS011;49086;52.300;4.850;2022-09-13T09:18:19;4.63;;;1.55;;
62994;SDS011;49086;52.300;4.850;2022-09-13T09:21:15;4.90;;;1.67;;
62994;SDS011;49086;52.300;4.850;2022-09-13T09:30:14;5.85;;;1.40;;
62994;SDS011;49086;52.300;4.850;2022-09-13T09:37:24;4.53;;;1.50;;
62994;SDS011;49086;52.300;4.850;2022-09-13T09:40:22;4.20;;;1.70;;
62994;SDS011;49086;52.300;4.850;2022-09-13T09:43:18;7.97;;;1.83;;
62994;SDS011;49086;52.300;4.850;2022-09-13T09:46:26;8.63;;;1.52;;
62994;SDS011;49086;52.300;4.850;2022-09-13T09:49:35;3.22;;;1.25;;
62994;SDS011;49086;52.300;4.850;2022-09-13T09:52:27;4.57;;;1.40;;
62994;SDS011;49086;52.300;4.850;2022-09-13T10:01:18;7.93;;;1.45;;
62994;SDS011;49086;52.300;4.850;2022-09-13T10:10:25;7.13;;;1.60;;
62994;SDS011;49086;52.300;4.850;2022-09-13T10:13:19;5.10;;;1.50;;
62994;SDS011;49086;52.300;4.850;2022-09-13T10:16:26;2.90;;;1.30;;
62994;SDS011;49086;52.300;4.850;2022-09-13T10:19:26;4.25;;;1.45;;
62994;SDS011;49086;52.300;4.850;2022-09-13T10:22:03;4.82;;;1.30;;
62994;SDS011;49086;52.300;4.850;2022-09-13T10:24:48;3.95;;;1.52;;
62994;SDS011;49086;52.300;4.850;2022-09-13T10:27:57;4.97;;;1.30;;
62994;SDS011;49086;52.300;4.850;2022-09-13T10:30:32;3.45;;;1.20;;
62994;SDS011;49086;52.300;4.850;2022-09-13T10:36:15;6.03;;;1.10;;
62994;SDS011;49086;52.300;4.850;2022-09-13T10:38:58;4.15;;;1.70;;
62994;SDS011;49086;52.300;4.850;2022-09-13T10:42:04;4.35;;;1.58;;
62994;SDS011;49086;52.300;4.850;2022-09-13T10:44:50;3.58;;;1.17;;
62994;SDS011;49086;52.300;4.850;2022-09-13T10:47:53;3.15;;;1.15;;
62994;SDS011;49086;52.300;4.850;2022-09-13T10:50:27;5.13;;;1.13;;
62994;SDS011;49086;52.300;4.850;2022-09-13T10:53:01;3.63;;;1.20;;
62994;SDS011;49086;52.300;4.850;2022-09-13T10:56:26;5.47;;;1.02;;
62994;SDS011;49086;52.300;4.850;2022-09-13T11:24:56;2.47;;;1.08;;
62994;SDS011;49086;52.300;4.850;2022-09-13T11:40:24;3.97;;;1.30;;
62994;SDS011;49086;52.300;4.850;2022-09-13T11:55:28;4.45;;;1.10;;
62994;SDS011;49086;52.300;4.850;2022-09-13T11:58:20;8.07;;;1.20;;
62994;SDS011;49086;52.300;4.850;2022-09-13T12:01:16;3.40;;;1.05;;
62994;SDS011;49086;52.300;4.850;2022-09-13T12:04:39;4.05;;;1.02;;
62994;SDS011;49086;52.300;4.850;2022-09-13T12:07:29;4.85;;;0.85;;
62994;SDS011;49086;52.300;4.850;2022-09-13T12:10:40;4.82;;;1.08;;
62994;SDS011;49086;52.300;4.850;2022-09-13T12:13:20;3.10;;;0.82;;
62994;SDS011;49086;52.300;4.850;2022-09-13T12:15:54;3.88;;;0.77;;
62994;SDS011;49086;52.300;4.850;2022-09-13T12:18:33;5.32;;;0.77;;
62994;SDS011;49086;52.300;4.850;2022-09-13T12:21:38;4.13;;;0.80;;
62994;SDS011;49086;52.300;4.850;2022-09-13T12:27:09;8.00;;;1.05;;
62994;SDS011;49086;52.300;4.850;2022-09-13T12:30:05;3.95;;;0.80;;
62994;SDS011;49086;52.300;4.850;2022-09-13T12:32:42;4.18;;;0.70;;
62994;SDS011;49086;52.300;4.850;2022-09-13T12:38:24;6.25;;;1.20;;
62994;SDS011;49086;52.300;4.850;2022-09-13T12:50:42;3.97;;;0.93;;
62994;SDS011;49086;52.300;4.850;2022-09-13T12:57:33;2.40;;;0.75;;
62994;SDS011;49086;52.300;4.850;2022-09-13T13:00:40;3.72;;;0.90;;
62994;SDS011;49086;52.300;4.850;2022-09-13T13:06:53;7.63;;;1.25;;
62994;SDS011;49086;52.300;4.850;2022-09-13T13:09:45;4.68;;;1.08;;
62994;SDS011;49086;52.300;4.850;2022-09-13T13:18:54;4.27;;;1.00;;
62994;SDS011;49086;52.300;4.850;2022-09-13T13:29:09;4.18;;;1.08;;
62994;SDS011;49086;52.300;4.850;2022-09-13T13:40:12;4.43;;;0.88;;
62994;SDS011;49086;52.300;4.850;2022-09-13T13:46:22;6.00;;;1.17;;
62994;SDS011;49086;52.300;4.850;2022-09-13T13:52:48;6.45;;;0.90;;
62994;SDS011;49086;52.300;4.850;2022-09-13T14:00:49;5.63;;;1.20;;
62994;SDS011;49086;52.300;4.850;2022-09-13T14:03:41;6.82;;;1.17;;
62994;SDS011;49086;52.300;4.850;2022-09-13T14:06:40;3.17;;;0.70;;
62994;SDS011;49086;52.300;4.850;2022-09-13T14:09:21;4.60;;;0.90;;
62994;SDS011;49086;52.300;4.850;2022-09-13T14:12:43;2.30;;;0.93;;
62994;SDS011;49086;52.300;4.850;2022-09-13T14:15:48;5.45;;;1.10;;
62994;SDS011;49086;52.300;4.850;2022-09-13T14:19:22;2.72;;;1.00;;
62994;SDS011;49086;52.300;4.850;2022-09-13T14:22:05;2.38;;;0.90;;
62994;SDS011;49086;52.300;4.850;2022-09-13T14:24:48;3.47;;;0.90;;
62994;SDS011;49086;52.300;4.850;2022-09-13T14:27:20;3.65;;;0.95;;
62994;SDS011;49086;52.300;4.850;2022-09-13T14:30:31;4.53;;;1.35;;
62994;SDS011;49086;52.300;4.850;2022-09-13T14:33:50;4.15;;;1.10;;
62994;SDS011;49086;52.300;4.850;2022-09-13T14:36:57;4.43;;;0.88;;
62994;SDS011;49086;52.300;4.850;2022-09-13T14:40:18;6.80;;;0.98;;
62994;SDS011;49086;52.300;4.850;2022-09-13T14:43:21;3.53;;;0.90;;
62994;SDS011;49086;52.300;4.850;2022-09-13T14:46:15;6.35;;;1.10;;
62994;SDS011;49086;52.300;4.850;2022-09-13T14:49:07;4.90;;;1.20;;
62994;SDS011;49086;52.300;4.850;2022-09-13T14:51:45;4.05;;;1.00;;
62994;SDS011;49086;52.300;4.850;2022-09-13T14:54:23;3.80;;;0.77;;
62994;SDS011;49086;52.300;4.850;2022-09-13T14:57:38;2.78;;;0.93;;
62994;SDS011;49086;52.300;4.850;2022-09-13T15:00:20;3.08;;;0.95;;
62994;SDS011;49086;52.300;4.850;2022-09-13T15:02:55;4.13;;;0.98;;
62994;SDS011;49086;52.300;4.850;2022-09-13T15:05:25;4.40;;;0.90;;
62994;SDS011;49086;52.300;4.850;2022-09-13T15:08:26;6.30;;;1.63;;
62994;SDS011;49086;52.300;4.850;2022-09-13T15:11:32;7.03;;;1.80;;
62994;SDS011;49086;52.300;4.850;2022-09-13T15:14:00;3.00;;;0.85;;
62994;SDS011;49086;52.300;4.850;2022-09-13T15:16:52;7.03;;;1.15;;
62994;SDS011;49086;52.300;4.850;2022-09-13T15:19:26;2.53;;;0.90;;
62994;SDS011;49086;52.300;4.850;2022-09-13T15:22:04;4.32;;;0.93;;
62994;SDS011;49086;52.300;4.850;2022-09-13T15:24:38;4.68;;;1.05;;
62994;SDS011;49086;52.300;4.850;2022-09-13T15:27:16;5.30;;;1.08;;
62994;SDS011;49086;52.300;4.850;2022-09-13T15:30:24;4.38;;;0.88;;
62994;SDS011;49086;52.300;4.850;2022-09-13T15:33:04;5.50;;;1.00;;
62994;SDS011;49086;52.300;4.850;2022-09-13T15:36:10;5.22;;;1.10;;
62994;SDS011;49086;52.300;4.850;2022-09-13T15:38:58;3.72;;;0.93;;
62994;SDS011;49086;52.300;4.850;2022-09-13T15:41:50;4.13;;;1.05;;
62994;SDS011;49086;52.300;4.850;2022-09-13T15:44:37;2.83;;;0.90;;
62994;SDS011;49086;52.300;4.850;2022-09-13T15:47:10;7.03;;;1.00;;
62994;SDS011;49086;52.300;4.850;2022-09-13T15:49:47;5.22;;;0.90;;
62994;SDS011;49086;52.300;4.850;2022-09-13T15:52:15;4.50;;;1.10;;
62994;SDS011;49086;52.300;4.850;2022-09-13T15:54:41;7.18;;;1.20;;
62994;SDS011;49086;52.300;4.850;2022-09-13T15:57:15;4.38;;;0.90;;
62994;SDS011;49086;52.300;4.850;2022-09-13T15:59:46;2.90;;;0.98;;
62994;SDS011;49086;52.300;4.850;2022-09-13T16:02:23;4.00;;;1.08;;
62994;SDS011;49086;52.300;4.850;2022-09-13T16:05:00;5.78;;;1.00;;
62994;SDS011;49086;52.300;4.850;2022-09-13T16:07:26;4.30;;;0.90;;
62994;SDS011;49086;52.300;4.850;2022-09-13T16:09:53;5.10;;;1.40;;
62994;SDS011;49086;52.300;4.850;2022-09-13T16:12:21;5.22;;;1.10;;
62994;SDS011;49086;52.300;4.850;2022-09-13T16:14:51;6.88;;;1.30;;
62994;SDS011;49086;52.300;4.850;2022-09-13T16:17:19;5.43;;;0.90;;
62994;SDS011;49086;52.300;4.850;2022-09-13T16:19:53;1.58;;;0.80;;
62994;SDS011;49086;52.300;4.850;2022-09-13T16:22:23;5.70;;;1.23;;
62994;SDS011;49086;52.300;4.850;2022-09-13T16:24:51;6.00;;;1.00;;
62994;SDS011;49086;52.300;4.850;2022-09-13T16:27:18;3.35;;;1.08;;
62994;SDS011;49086;52.300;4.850;2022-09-13T16:29:49;3.25;;;1.15;;
62994;SDS011;49086;52.300;4.850;2022-09-13T16:32:17;5.88;;;1.20;;
62994;SDS011;49086;52.300;4.850;2022-09-13T16:34:44;5.38;;;1.42;;
62994;SDS011;49086;52.300;4.850;2022-09-13T16:37:15;4.72;;;1.42;;
62994;SDS011;49086;52.300;4.850;2022-09-13T16:39:46;4.90;;;1.10;;
62994;SDS011;49086;52.300;4.850;2022-09-13T16:42:16;6.28;;;1.23;;
62994;SDS011;49086;52.300;4.850;2022-09-13T16:44:44;5.75;;;1.00;;
62994;SDS011;49086;52.300;4.850;2022-09-13T16:47:14;5.85;;;1.00;;
62994;SDS011;49086;52.300;4.850;2022-09-13T16:49:40;5.03;;;0.90;;
62994;SDS011;49086;52.300;4.850;2022-09-13T16:52:09;4.68;;;1.48;;
62994;SDS011;49086;52.300;4.850;2022-09-13T16:54:36;5.43;;;1.58;;
62994;SDS011;49086;52.300;4.850;2022-09-13T16:57:03;7.18;;;1.33;;
62994;SDS011;49086;52.300;4.850;2022-09-13T16:59:31;6.93;;;1.05;;
62994;SDS011;49086;52.300;4.850;2022-09-13T17:01:58;5.25;;;1.15;;
62994;SDS011;49086;52.300;4.850;2022-09-13T17:04:27;4.40;;;1.10;;
62994;SDS011;49086;52.300;4.850;2022-09-13T17:06:58;5.63;;;1.00;;
62994;SDS011;49086;52.300;4.850;2022-09-13T17:09:30;6.35;;;1.38;;
62994;SDS011;49086;52.300;4.850;2022-09-13T17:11:58;4.85;;;1.10;;
62994;SDS011;49086;52.300;4.850;2022-09-13T17:14:26;4.57;;;1.08;;
62994;SDS011;49086;52.300;4.850;2022-09-13T17:16:54;4.65;;;0.90;;
62994;SDS011;49086;52.300;4.850;2022-09-13T17:19:24;3.97;;;1.10;;
62994;SDS011;49086;52.300;4.850;2022-09-13T17:21:57;6.07;;;1.45;;
62994;SDS011;49086;52.300;4.850;2022-09-13T17:24:24;5.13;;;1.17;;
62994;SDS011;49086;52.300;4.850;2022-09-13T17:26:53;6.93;;;1.17;;
62994;SDS011;49086;52.300;4.850;2022-09-13T17:29:25;3.83;;;1.13;;
62994;SDS011;49086;52.300;4.850;2022-09-13T17:31:55;9.10;;;1.30;;
62994;SDS011;49086;52.300;4.850;2022-09-13T17:34:30;8.30;;;1.30;;
62994;SDS011;49086;52.300;4.850;2022-09-13T17:37:00;8.55;;;1.50;;
62994;SDS011;49086;52.300;4.850;2022-09-13T17:39:31;3.47;;;1.10;;
62994;SDS011;49086;52.300;4.850;2022-09-13T17:41:56;6.05;;;1.83;;
62994;SDS011;49086;52.300;4.850;2022-09-13T17:44:23;6.68;;;1.30;;
62994;SDS011;49086;52.300;4.850;2022-09-13T17:46:55;8.77;;;2.03;;
62994;SDS011;49086;52.300;4.850;2022-09-13T17:49:20;5.75;;;1.10;;
62994;SDS011;49086;52.300;4.850;2022-09-13T17:51:49;7.95;;;1.40;;
62994;SDS011;49086;52.300;4.850;2022-09-13T17:54:17;6.18;;;1.45;;
62994;SDS011;49086;52.300;4.850;2022-09-13T17:56:42;4.20;;;1.10;;
62994;SDS011;49086;52.300;4.850;2022-09-13T17:59:10;9.70;;;1.27;;
62994;SDS011;49086;52.300;4.850;2022-09-13T18:01:46;9.30;;;1.30;;
62994;SDS011;49086;52.300;4.850;2022-09-13T18:04:15;7.27;;;1.30;;
62994;SDS011;49086;52.300;4.850;2022-09-13T18:06:42;5.38;;;1.45;;
62994;SDS011;49086;52.300;4.850;2022-09-13T18:09:11;5.32;;;1.23;;
62994;SDS011;49086;52.300;4.850;2022-09-13T18:11:47;6.97;;;1.30;;
62994;SDS011;49086;52.300;4.850;2022-09-13T18:14:13;8.75;;;1.40;;
62994;SDS011;49086;52.300;4.850;2022-09-13T18:16:43;5.80;;;1.30;;
62994;SDS011;49086;52.300;4.850;2022-09-13T18:19:10;5.78;;;1.05;;
62994;SDS011;49086;52.300;4.850;2022-09-13T18:21:41;8.30;;;1.20;;
62994;SDS011;49086;52.300;4.850;2022-09-13T18:24:08;4.47;;;1.10;;
62994;SDS011;49086;52.300;4.850;2022-09-13T18:26:37;8.02;;;1.30;;
62994;SDS011;49086;52.300;4.850;2022-09-13T18:29:03;6.53;;;1.10;;
62994;SDS011;49086;52.300;4.850;2022-09-13T18:31:32;5.45;;;1.25;;
62994;SDS011;49086;52.300;4.850;2022-09-13T18:34:05;3.75;;;1.00;;
62994;SDS011;49086;52.300;4.850;2022-09-13T18:36:39;4.63;;;1.27;;
62994;SDS011;49086;52.300;4.850;2022-09-13T18:39:12;6.88;;;1.33;;
62994;SDS011;49086;52.300;4.850;2022-09-13T18:41:40;4.80;;;1.27;;
62994;SDS011;49086;52.300;4.850;2022-09-13T18:44:08;6.05;;;1.52;;
62994;SDS011;49086;52.300;4.850;2022-09-13T18:46:45;10.10;;;1.58;;
62994;SDS011;49086;52.300;4.850;2022-09-13T18:49:29;5.78;;;1.20;;
62994;SDS011;49086;52.300;4.850;2022-09-13T18:51:59;7.13;;;1.55;;
62994;SDS011;49086;52.300;4.850;2022-09-13T18:54:28;5.03;;;1.13;;
62994;SDS011;49086;52.300;4.850;2022-09-13T18:56:53;7.22;;;1.20;;
62994;SDS011;49086;52.300;4.850;2022-09-13T18:59:22;6.75;;;1.55;;
62994;SDS011;49086;52.300;4.850;2022-09-13T19:01:51;7.15;;;1.23;;
62994;SDS011;49086;52.300;4.850;2022-09-13T19:04:18;3.72;;;1.08;;